createdAt,value
2022-11-17T00:00:48.428Z,10.00
2022-11-17T00:03:17.981Z,10.00
2022-11-17T00:05:47.052Z,10.00
2022-11-17T00:08:15.906Z,10.00
2022-11-17T00:10:46.713Z,10.00
2022-11-17T00:13:34.154Z,10.00
2022-11-17T00:16:02.773Z,10.00
2022-11-17T00:18:51.842Z,10.00
2022-11-17T00:21:21.971Z,10.00
2022-11-17T00:23:50.916Z,10.00
2022-11-17T00:26:21.033Z,10.00
2022-11-17T00:28:56.130Z,10.00
2022-11-17T00:31:44.832Z,10.00
2022-11-17T00:34:16.829Z,10.00
2022-11-17T00:36:48.215Z,10.10
2022-11-17T00:39:18.777Z,10.00
2022-11-17T00:41:48.504Z,10.10
2022-11-17T00:44:19.278Z,10.10
2022-11-17T00:46:48.561Z,10.10
2022-11-17T00:49:17.425Z,10.10
2022-11-17T00:51:47.498Z,10.10
2022-11-17T00:54:15.993Z,10.20
2022-11-17T00:56:44.598Z,10.30
2022-11-17T00:59:13.275Z,10.30
2022-11-17T01:01:45.444Z,10.30
2022-11-17T01:04:17.867Z,10.30
2022-11-17T01:06:48.102Z,10.30
2022-11-17T01:09:21.248Z,10.30
2022-11-17T01:11:51.872Z,10.30
2022-11-17T01:14:26.915Z,10.30
2022-11-17T01:16:57.677Z,10.20
2022-11-17T01:19:26.560Z,10.20
2022-11-17T01:21:55.627Z,10.10
2022-11-17T01:24:24.163Z,10.10
2022-11-17T01:26:56.294Z,10.10
2022-11-17T01:29:24.786Z,10.20
2022-11-17T01:31:55.058Z,10.20
2022-11-17T01:34:29.983Z,10.20
2022-11-17T01:37:15.904Z,10.20
2022-11-17T01:39:47.123Z,10.20
2022-11-17T01:42:18.406Z,10.30
2022-11-17T01:45:07.303Z,10.30
2022-11-17T01:47:43.998Z,10.30
2022-11-17T01:50:28.497Z,10.30
2022-11-17T01:53:01.386Z,10.40
2022-11-17T01:55:35.269Z,10.30
2022-11-17T01:58:10.179Z,10.30
2022-11-17T02:00:38.702Z,10.30
2022-11-17T02:03:08.342Z,10.30
2022-11-17T02:05:44.544Z,10.40
2022-11-17T02:08:13.766Z,10.40
2022-11-17T02:10:50.229Z,10.40
2022-11-17T02:13:21.509Z,10.50
2022-11-17T02:15:50.647Z,10.50
2022-11-17T02:18:22.586Z,10.40
2022-11-17T02:21:24.586Z,10.50
2022-11-17T02:24:40.151Z,10.50
2022-11-17T02:27:42.864Z,10.60
2022-11-17T02:30:14.215Z,10.60
2022-11-17T02:32:53.044Z,10.60
2022-11-17T02:35:27.632Z,10.60
2022-11-17T02:38:07.423Z,10.60
2022-11-17T02:40:40.986Z,10.60
2022-11-17T02:43:35.152Z,10.60
2022-11-17T02:46:09.854Z,10.70
2022-11-17T02:48:41.324Z,10.60
2022-11-17T02:51:18.979Z,10.70
2022-11-17T02:53:48.045Z,10.60
2022-11-17T02:56:16.784Z,10.60
2022-11-17T02:58:49.039Z,10.60
2022-11-17T03:01:31.864Z,10.70
2022-11-17T03:04:23.134Z,10.90
2022-11-17T03:06:59.259Z,10.90
2022-11-17T03:09:40.401Z,10.80
2022-11-17T03:12:13.281Z,10.80
2022-11-17T03:14:52.771Z,10.90
2022-11-17T03:17:29.201Z,10.90
2022-11-17T03:20:05.712Z,10.90
2022-11-17T03:22:45.851Z,10.80
2022-11-17T03:25:19.563Z,10.80
2022-11-17T03:27:52.029Z,10.80
2022-11-17T03:30:26.114Z,10.90
2022-11-17T03:33:08.112Z,11.00
2022-11-17T03:35:40.270Z,10.90
2022-11-17T03:38:15.867Z,10.90
2022-11-17T03:40:48.426Z,10.90
2022-11-17T03:43:22.046Z,10.90
2022-11-17T03:45:56.762Z,11.00
2022-11-17T03:48:30.946Z,11.00
2022-11-17T03:51:08.081Z,11.10
2022-11-17T03:53:37.873Z,11.00
2022-11-17T03:56:18.332Z,11.20
2022-11-17T03:58:55.453Z,11.10
2022-11-17T04:01:28.435Z,11.20
2022-11-17T04:03:58.283Z,11.20
2022-11-17T04:06:26.908Z,11.20
2022-11-17T04:08:55.493Z,11.20
2022-11-17T04:11:43.423Z,11.20
2022-11-17T04:14:30.125Z,11.20
2022-11-17T04:17:01.217Z,11.10
2022-11-17T04:19:31.971Z,11.10
2022-11-17T04:22:01.083Z,11.10
2022-11-17T04:24:31.830Z,11.10
2022-11-17T04:27:17.731Z,11.10
2022-11-17T04:29:47.242Z,11.10
2022-11-17T04:32:21.432Z,11.10
2022-11-17T04:34:50.319Z,11.10
2022-11-17T04:37:20.737Z,11.10
2022-11-17T04:39:49.141Z,11.00
2022-11-17T04:42:17.015Z,10.90
2022-11-17T04:44:45.390Z,10.90
2022-11-17T04:47:13.785Z,10.90
2022-11-17T04:49:43.687Z,10.90
2022-11-17T04:52:12.133Z,10.90
2022-11-17T04:54:40.703Z,10.80
2022-11-17T04:57:09.446Z,10.70
2022-11-17T04:59:39.038Z,10.70
2022-11-17T05:02:07.498Z,10.60
2022-11-17T05:04:53.109Z,10.60
2022-11-17T05:07:26.513Z,10.70
2022-11-17T05:09:56.006Z,10.70
2022-11-17T05:12:43.967Z,10.70
2022-11-17T05:15:33.444Z,10.60
2022-11-17T05:18:00.669Z,10.60
2022-11-17T05:20:28.862Z,10.60
2022-11-17T05:23:27.632Z,10.60
2022-11-17T05:25:56.022Z,10.60
2022-11-17T05:28:24.462Z,10.70
2022-11-17T05:30:52.753Z,10.70
2022-11-17T05:33:21.132Z,10.70
2022-11-17T05:35:53.231Z,10.70
2022-11-17T05:38:23.203Z,10.70
2022-11-17T05:40:52.135Z,10.60
2022-11-17T05:43:21.715Z,10.70
2022-11-17T05:45:59.961Z,10.60
2022-11-17T05:48:28.355Z,10.60
2022-11-17T05:50:57.805Z,10.60
2022-11-17T05:53:30.179Z,10.60
2022-11-17T05:56:33.467Z,10.80
2022-11-17T05:59:14.446Z,10.80
2022-11-17T06:01:47.072Z,10.80
2022-11-17T06:04:19.288Z,10.80
2022-11-17T06:06:49.185Z,10.70
2022-11-17T06:09:19.285Z,10.70
2022-11-17T06:11:47.895Z,10.70
2022-11-17T06:14:16.206Z,10.70
2022-11-17T06:16:47.613Z,10.80
2022-11-17T06:19:20.906Z,10.80
2022-11-17T06:22:11.136Z,10.80
2022-11-17T06:24:40.478Z,10.80
2022-11-17T06:27:09.288Z,10.70
2022-11-17T06:29:44.260Z,10.80
2022-11-17T06:32:15.150Z,10.70
2022-11-17T06:34:44.465Z,10.80
2022-11-17T06:37:15.223Z,10.70
2022-11-17T06:39:47.443Z,10.70
2022-11-17T06:42:16.233Z,10.70
2022-11-17T06:44:45.215Z,10.60
2022-11-17T06:47:13.998Z,10.60
2022-11-17T06:49:42.708Z,10.50
2022-11-17T06:52:11.681Z,10.40
2022-11-17T06:54:42.454Z,10.40
2022-11-17T06:57:12.892Z,10.40
2022-11-17T06:59:42.657Z,10.40
2022-11-17T07:02:11.329Z,10.40
2022-11-17T07:04:42.035Z,10.40
2022-11-17T07:07:11.106Z,10.40
2022-11-17T07:09:41.217Z,10.40
2022-11-17T07:12:11.819Z,10.40
2022-11-17T07:14:40.385Z,10.30
2022-11-17T07:17:11.343Z,10.30
2022-11-17T07:19:42.474Z,10.30
2022-11-17T07:22:12.183Z,10.30
2022-11-17T07:24:40.649Z,10.40
2022-11-17T07:27:09.486Z,10.40
2022-11-17T07:29:39.729Z,10.40
2022-11-17T07:32:08.833Z,10.40
2022-11-17T07:34:37.463Z,10.40
2022-11-17T07:37:06.387Z,10.40
2022-11-17T07:39:35.502Z,10.40
2022-11-17T07:42:03.856Z,10.40
2022-11-17T07:44:32.359Z,10.40
2022-11-17T07:47:02.656Z,10.40
2022-11-17T07:49:31.622Z,10.50
2022-11-17T07:52:00.528Z,10.50
2022-11-17T07:54:29.812Z,10.50
2022-11-17T07:56:58.562Z,10.50
2022-11-17T07:59:26.905Z,10.60
2022-11-17T08:01:57.248Z,10.50
2022-11-17T08:04:27.442Z,10.50
2022-11-17T08:06:56.739Z,10.50
2022-11-17T08:09:27.560Z,10.60
2022-11-17T08:11:57.704Z,10.60
2022-11-17T08:14:27.156Z,10.50
2022-11-17T08:16:58.602Z,10.50
2022-11-17T08:19:28.887Z,10.60
2022-11-17T08:21:58.473Z,10.60
2022-11-17T08:24:27.135Z,10.60
2022-11-17T08:26:56.375Z,10.60
2022-11-17T08:29:24.944Z,10.60
2022-11-17T08:31:56.059Z,10.70
2022-11-17T08:34:26.522Z,10.70
2022-11-17T08:36:57.049Z,10.60
2022-11-17T08:39:28.101Z,10.60
2022-11-17T08:41:59.063Z,10.60
2022-11-17T08:44:27.439Z,10.60
2022-11-17T08:46:57.545Z,10.70
2022-11-17T08:49:26.760Z,10.70
2022-11-17T08:51:57.867Z,10.60
2022-11-17T08:54:26.782Z,10.60
2022-11-17T08:56:59.391Z,10.70
2022-11-17T08:59:30.393Z,10.70
2022-11-17T09:01:59.198Z,10.70
2022-11-17T09:04:27.855Z,10.70
2022-11-17T09:06:57.889Z,10.80
2022-11-17T09:09:27.063Z,10.80
2022-11-17T09:11:55.633Z,10.80
2022-11-17T09:14:24.643Z,10.80
2022-11-17T09:16:54.456Z,10.80
2022-11-17T09:19:25.124Z,10.90
2022-11-17T09:21:57.060Z,10.90
2022-11-17T09:24:32.212Z,10.90
2022-11-17T09:27:04.680Z,10.90
2022-11-17T09:29:34.637Z,10.90
2022-11-17T09:32:06.229Z,10.90
2022-11-17T09:34:42.038Z,10.90
2022-11-17T09:37:14.548Z,10.90
2022-11-17T09:39:49.428Z,10.90
2022-11-17T09:42:20.506Z,10.90
2022-11-17T09:44:58.774Z,10.90
2022-11-17T09:47:38.456Z,11.00
2022-11-17T09:50:21.498Z,11.00
2022-11-17T09:52:57.561Z,11.00
2022-11-17T09:55:34.441Z,11.10
2022-11-17T09:58:15.075Z,11.10
2022-11-17T10:00:48.928Z,11.20
2022-11-17T10:03:22.560Z,11.20
2022-11-17T10:05:53.224Z,11.20
2022-11-17T10:08:31.272Z,11.20
2022-11-17T10:11:24.328Z,11.20
2022-11-17T10:13:53.096Z,11.20
2022-11-17T10:16:22.190Z,11.30
2022-11-17T10:18:50.720Z,11.30
2022-11-17T10:21:22.036Z,11.40
2022-11-17T10:23:59.155Z,11.40
2022-11-17T10:26:29.307Z,11.40
2022-11-17T10:29:09.184Z,11.40
2022-11-17T10:31:45.985Z,11.30
2022-11-17T10:34:41.062Z,11.30
2022-11-17T10:37:28.695Z,11.30
2022-11-17T10:40:25.409Z,11.30
2022-11-17T10:43:23.572Z,11.50
2022-11-17T10:45:55.880Z,11.70
2022-11-17T10:48:32.283Z,11.80
2022-11-17T10:51:02.366Z,11.80
2022-11-17T10:53:46.474Z,11.80
2022-11-17T10:56:18.917Z,11.80
2022-11-17T10:59:17.443Z,11.80
2022-11-17T11:01:47.797Z,11.80
2022-11-17T11:04:34.857Z,11.90
2022-11-17T11:07:14.762Z,11.90
2022-11-17T11:09:50.495Z,11.80
2022-11-17T11:12:25.603Z,11.80
2022-11-17T11:14:59.737Z,11.80
2022-11-17T11:17:31.579Z,11.80
2022-11-17T11:20:01.641Z,11.90
2022-11-17T11:22:38.940Z,11.90
2022-11-17T11:25:19.358Z,11.90
2022-11-17T11:28:00.533Z,12.00
2022-11-17T11:30:38.983Z,12.00
2022-11-17T11:33:25.140Z,12.00
2022-11-17T11:36:06.781Z,11.90
2022-11-17T11:38:59.037Z,11.90
2022-11-17T11:41:46.331Z,11.80
2022-11-17T11:44:37.459Z,11.80
2022-11-17T11:47:22.194Z,11.70
2022-11-17T11:49:55.038Z,11.70
2022-11-17T11:52:28.715Z,11.70
2022-11-17T11:55:03.456Z,11.60
2022-11-17T11:57:38.498Z,11.70
2022-11-17T12:00:10.237Z,11.60
2022-11-17T12:02:50.065Z,11.60
2022-11-17T12:05:26.444Z,11.60
2022-11-17T12:08:10.815Z,11.60
2022-11-17T12:10:50.119Z,11.60
2022-11-17T12:13:22.543Z,11.60
2022-11-17T12:15:54.212Z,11.60
2022-11-17T12:18:35.730Z,11.50
2022-11-17T12:21:07.376Z,11.50
2022-11-17T12:24:14.815Z,11.40
2022-11-17T12:26:46.765Z,11.40
2022-11-17T12:29:32.098Z,11.30
2022-11-17T12:32:02.967Z,11.20
2022-11-17T12:34:35.830Z,11.00
2022-11-17T12:37:18.025Z,10.90
2022-11-17T12:40:04.395Z,10.90
2022-11-17T12:42:36.354Z,10.90
2022-11-17T12:45:24.065Z,10.80
2022-11-17T12:48:18.261Z,10.80
2022-11-17T12:51:04.628Z,10.80
2022-11-17T12:53:44.705Z,10.80
2022-11-17T12:56:51.910Z,10.80
2022-11-17T12:59:43.284Z,10.70
2022-11-17T13:02:30.202Z,10.70
2022-11-17T13:05:06.395Z,10.70
2022-11-17T13:07:36.990Z,10.70
2022-11-17T13:10:06.340Z,10.60
2022-11-17T13:12:37.192Z,10.50
2022-11-17T13:15:08.222Z,10.50
2022-11-17T13:17:41.105Z,10.40
2022-11-17T13:20:21.526Z,10.30
2022-11-17T13:23:06.699Z,10.20
2022-11-17T13:25:37.580Z,10.20
2022-11-17T13:28:10.057Z,10.20
2022-11-17T13:30:39.771Z,10.10
2022-11-17T13:33:21.242Z,10.00
2022-11-17T13:35:53.400Z,10.00
2022-11-17T13:38:29.543Z,10.00
2022-11-17T13:41:02.860Z,10.00
2022-11-17T13:43:43.604Z,9.90
2022-11-17T13:46:14.058Z,9.80
2022-11-17T13:48:47.293Z,9.80
2022-11-17T13:51:39.303Z,9.80
2022-11-17T13:54:17.672Z,9.70
2022-11-17T13:56:53.363Z,9.70
2022-11-17T13:59:26.945Z,9.70
2022-11-17T14:02:29.648Z,9.70
2022-11-17T14:05:19.592Z,9.60
2022-11-17T14:07:48.905Z,9.60
2022-11-17T14:10:29.957Z,9.50
2022-11-17T14:13:20.362Z,9.40
2022-11-17T14:15:56.932Z,9.40
2022-11-17T14:18:30.327Z,9.40
2022-11-17T14:21:17.474Z,9.30
2022-11-17T14:23:46.333Z,9.30
2022-11-17T14:26:21.092Z,9.20
2022-11-17T14:28:51.109Z,9.30
2022-11-17T14:31:20.494Z,9.40
2022-11-17T14:33:50.546Z,9.60
2022-11-17T14:36:20.839Z,9.60
2022-11-17T14:38:49.528Z,9.70
2022-11-17T14:41:21.700Z,9.60
2022-11-17T14:43:52.547Z,9.60
2022-11-17T14:46:26.706Z,9.60
2022-11-17T14:48:55.933Z,9.60
2022-11-17T14:51:29.794Z,9.50
2022-11-17T14:53:59.513Z,9.50
2022-11-17T14:56:31.302Z,9.40
2022-11-17T14:59:02.917Z,9.40
2022-11-17T15:01:34.252Z,9.30
2022-11-17T15:04:27.624Z,9.20
2022-11-17T15:06:58.076Z,9.20
2022-11-17T15:09:26.995Z,9.10
2022-11-17T15:11:57.995Z,9.10
2022-11-17T15:14:29.448Z,9.20
2022-11-17T15:17:02.270Z,9.20
2022-11-17T15:19:31.472Z,9.20
2022-11-17T15:22:00.258Z,9.20
2022-11-17T15:24:31.770Z,9.10
2022-11-17T15:27:02.121Z,9.10
2022-11-17T15:29:31.945Z,9.00
2022-11-17T15:32:04.875Z,9.00
2022-11-17T15:34:34.558Z,8.90
2022-11-17T15:37:09.475Z,8.90
2022-11-17T15:39:39.102Z,8.80
2022-11-17T15:42:14.116Z,8.80
2022-11-17T15:44:47.615Z,8.80
2022-11-17T15:47:17.353Z,8.80
2022-11-17T15:49:50.791Z,8.80
2022-11-17T15:52:30.153Z,8.80
2022-11-17T15:55:08.875Z,8.70
2022-11-17T15:57:39.624Z,8.70
2022-11-17T16:00:13.423Z,8.60
2022-11-17T16:02:47.176Z,8.60
2022-11-17T16:05:15.824Z,8.50
2022-11-17T16:10:15.206Z,8.50
2022-11-17T16:12:45.396Z,8.40
2022-11-17T16:15:14.095Z,8.40
2022-11-17T16:17:45.461Z,8.40
2022-11-17T16:20:15.885Z,8.40
2022-11-17T16:22:48.508Z,8.40
2022-11-17T16:25:19.500Z,8.40
2022-11-17T16:27:51.488Z,8.40
2022-11-17T16:30:24.937Z,8.40
2022-11-17T16:32:58.339Z,8.40
2022-11-17T16:35:29.597Z,8.40
2022-11-17T16:37:59.130Z,8.50
2022-11-17T16:40:29.218Z,8.50
2022-11-17T16:43:04.874Z,8.50
2022-11-17T16:45:42.341Z,8.40
2022-11-17T16:48:11.871Z,8.40
2022-11-17T16:50:43.087Z,8.30
2022-11-17T16:53:11.698Z,8.30
2022-11-17T16:55:44.315Z,8.10
2022-11-17T16:58:16.541Z,8.00
2022-11-17T17:00:48.184Z,7.70
2022-11-17T17:03:21.556Z,7.60
2022-11-17T17:05:53.040Z,7.40
2022-11-17T17:08:21.374Z,7.30
2022-11-17T17:10:52.096Z,7.20
2022-11-17T17:13:22.863Z,7.20
2022-11-17T17:15:53.170Z,7.20
2022-11-17T17:18:22.219Z,7.10
2022-11-17T17:20:54.784Z,7.10
2022-11-17T17:23:26.399Z,7.00
2022-11-17T17:26:03.673Z,7.00
2022-11-17T17:28:37.612Z,7.00
2022-11-17T17:31:09.348Z,7.00
2022-11-17T17:33:48.988Z,7.00
2022-11-17T17:36:21.934Z,7.10
2022-11-17T17:38:56.491Z,7.00
2022-11-17T17:41:38.306Z,7.10
2022-11-17T17:44:10.828Z,7.00
2022-11-17T17:46:44.115Z,7.00
2022-11-17T17:49:19.401Z,7.10
2022-11-17T17:51:51.520Z,7.20
2022-11-17T17:54:24.233Z,7.20
2022-11-17T17:56:54.773Z,7.30
2022-11-17T17:59:38.715Z,7.30
2022-11-17T18:02:08.016Z,7.50
2022-11-17T18:04:43.979Z,7.60
2022-11-17T18:07:15.760Z,7.70
2022-11-17T18:09:47.860Z,7.70
2022-11-17T18:12:27.794Z,7.70
2022-11-17T18:15:02.232Z,7.70
2022-11-17T18:17:32.363Z,7.70
2022-11-17T18:20:05.751Z,7.70
2022-11-17T18:22:38.512Z,7.80
2022-11-17T18:25:12.521Z,7.80
2022-11-17T18:27:45.447Z,7.80
2022-11-17T18:30:17.808Z,7.80
2022-11-17T18:32:52.694Z,7.80
2022-11-17T18:35:25.881Z,7.80
2022-11-17T18:37:55.390Z,7.80
2022-11-17T18:40:27.128Z,7.90
2022-11-17T18:43:01.500Z,7.80
2022-11-17T18:45:36.404Z,7.80
2022-11-17T18:48:11.535Z,7.80
2022-11-17T18:51:21.153Z,7.80
2022-11-17T18:53:51.877Z,7.80
2022-11-17T18:56:25.201Z,7.80
2022-11-17T18:58:58.604Z,7.80
2022-11-17T19:01:32.451Z,7.70
2022-11-17T19:04:03.578Z,7.70
2022-11-17T19:06:35.934Z,7.70
2022-11-17T19:09:08.829Z,7.70
2022-11-17T19:11:41.271Z,7.70
2022-11-17T19:14:12.301Z,7.70
2022-11-17T19:16:45.437Z,7.80
2022-11-17T19:19:20.649Z,7.70
2022-11-17T19:21:50.565Z,7.80
2022-11-17T19:24:27.930Z,7.80
2022-11-17T19:27:00.444Z,7.90
2022-11-17T19:29:33.644Z,7.90
2022-11-17T19:32:15.233Z,8.00
2022-11-17T19:35:03.564Z,8.10
2022-11-17T19:37:43.879Z,8.10
2022-11-17T19:40:19.972Z,8.10
2022-11-17T19:42:53.628Z,8.10
2022-11-17T19:45:26.169Z,8.10
2022-11-17T19:48:03.735Z,8.10
2022-11-17T19:50:39.070Z,8.10
2022-11-17T19:53:11.979Z,8.10
2022-11-17T19:55:41.628Z,8.20
2022-11-17T19:58:15.208Z,8.20
2022-11-17T20:00:50.144Z,8.30
2022-11-17T20:03:28.977Z,8.30
2022-11-17T20:06:03.054Z,8.30
2022-11-17T20:08:36.058Z,8.40
2022-11-17T20:11:09.469Z,8.40
2022-11-17T20:13:41.493Z,8.40
2022-11-17T20:16:14.892Z,8.50
2022-11-17T20:18:47.993Z,8.50
2022-11-17T20:21:20.357Z,8.50
2022-11-17T20:23:58.483Z,8.50
2022-11-17T20:26:28.987Z,8.40
2022-11-17T20:29:04.729Z,8.40
2022-11-17T20:31:40.304Z,8.40
2022-11-17T20:34:16.743Z,8.40
2022-11-17T20:36:49.512Z,8.40
2022-11-17T20:39:24.483Z,8.40
2022-11-17T20:42:11.406Z,8.40
2022-11-17T20:44:42.862Z,8.40
2022-11-17T20:47:16.717Z,8.40
2022-11-17T20:49:56.397Z,8.40
2022-11-17T20:52:27.330Z,8.30
2022-11-17T20:54:56.745Z,8.20
2022-11-17T20:57:32.813Z,8.10
2022-11-17T21:00:08.821Z,8.10
2022-11-17T21:02:40.360Z,8.10
2022-11-17T21:05:14.534Z,8.00
2022-11-17T21:07:45.991Z,8.00
2022-11-17T21:10:18.329Z,8.00
2022-11-17T21:12:53.570Z,8.00
2022-11-17T21:15:27.574Z,8.00
2022-11-17T21:18:14.765Z,8.10
2022-11-17T21:20:46.617Z,8.10
2022-11-17T21:23:20.575Z,8.10
2022-11-17T21:25:51.198Z,8.10
2022-11-17T21:28:21.948Z,8.10
2022-11-17T21:31:01.522Z,8.10
2022-11-17T21:33:33.862Z,8.10
2022-11-17T21:36:10.334Z,8.10
2022-11-17T21:38:39.793Z,8.20
2022-11-17T21:41:13.318Z,8.20
2022-11-17T21:43:47.704Z,8.20
2022-11-17T21:46:20.756Z,8.20
2022-11-17T21:48:59.149Z,8.30
2022-11-17T21:51:34.376Z,8.30
2022-11-17T21:54:04.923Z,8.30
2022-11-17T21:56:36.151Z,8.30
2022-11-17T21:59:08.669Z,8.30
2022-11-17T22:01:45.314Z,8.30
2022-11-17T22:04:18.694Z,8.20
2022-11-17T22:07:07.168Z,8.20
2022-11-17T22:09:38.109Z,8.10
2022-11-17T22:12:11.177Z,8.10
2022-11-17T22:14:47.777Z,8.10
2022-11-17T22:17:20.307Z,8.10
2022-11-17T22:19:56.118Z,8.10
2022-11-17T22:22:31.425Z,8.10
2022-11-17T22:25:22.769Z,8.20
2022-11-17T22:27:52.256Z,8.20
2022-11-17T22:30:21.236Z,8.20
2022-11-17T22:32:59.802Z,8.20
2022-11-17T22:35:30.719Z,8.20
2022-11-17T22:38:01.764Z,8.10
2022-11-17T22:40:31.874Z,8.10
2022-11-17T22:43:13.343Z,8.10
2022-11-17T22:45:46.718Z,8.20
2022-11-17T22:48:20.580Z,8.20
2022-11-17T22:50:52.096Z,8.20
2022-11-17T22:53:24.138Z,8.20
2022-11-17T22:55:55.794Z,8.20
2022-11-17T22:58:31.389Z,8.30
2022-11-17T23:01:22.091Z,8.30
2022-11-17T23:03:51.985Z,8.20
2022-11-17T23:06:20.679Z,8.20
2022-11-17T23:09:02.385Z,8.10
2022-11-17T23:11:38.330Z,8.20
2022-11-17T23:14:13.224Z,8.20
2022-11-17T23:16:49.153Z,8.20
2022-11-17T23:19:18.718Z,8.30
2022-11-17T23:21:54.649Z,8.30
2022-11-17T23:24:33.248Z,8.30
2022-11-17T23:27:04.604Z,8.30
2022-11-17T23:29:34.346Z,8.30
2022-11-17T23:32:03.954Z,8.30
2022-11-17T23:34:38.424Z,8.30
2022-11-17T23:37:08.909Z,8.30
2022-11-17T23:39:41.800Z,8.30
2022-11-17T23:42:11.702Z,8.30
2022-11-17T23:44:43.058Z,8.20
2022-11-17T23:47:13.725Z,8.20
2022-11-17T23:49:48.166Z,8.20
2022-11-17T23:52:25.958Z,8.30
2022-11-17T23:55:02.970Z,8.30
2022-11-17T23:57:35.286Z,8.30
